Time;durP1;ratioP1;P1;durP2;ratioP2;P2;SDS_P1;SDS_P2;PMS_P1;PMS_P2;Temp;Humidity;BMP_temperature;BMP_pressure;BME280_temperature;BME280_humidity;BME280_pressure;Samples;Min_cycle;Max_cycle;Signal;HPM_P1;HPM_P2
2022/12/03 00:01:52;;;;;;;0.00;0.00;;;;;;;2.07;100.00;102629.22;10412449;28;20034;-76
2022/12/03 00:06:52;;;;;;;0.00;0.00;;;;;;;2.01;100.00;102624.22;10412654;28;20710;-76
2022/12/03 00:11:53;;;;;;;0.00;0.00;;;;;;;2.01;100.00;102618.97;10393730;28;20051;-76
2022/12/03 00:16:53;;;;;;;0.00;0.00;;;;;;;2.00;100.00;102625.97;10394019;28;20022;-76
2022/12/03 00:21:53;;;;;;;0.00;0.00;;;;;;;1.95;100.00;102608.66;10411231;28;20033;-77
2022/12/03 00:26:54;;;;;;;0.00;0.00;;;;;;;1.92;100.00;102621.91;10411383;28;20038;-76
2022/12/03 00:31:54;;;;;;;0.00;0.00;;;;;;;1.88;100.00;102615.94;10407102;28;20036;-76
2022/12/03 00:36:54;;;;;;;0.00;0.00;;;;;;;1.80;100.00;102623.25;10407496;28;20041;-76
2022/12/03 00:41:54;;;;;;;0.00;0.00;;;;;;;1.70;100.00;102614.88;10410443;28;20038;-76
2022/12/03 00:46:55;;;;;;;0.00;0.00;;;;;;;1.66;100.00;102618.53;10392906;28;20025;-76
2022/12/03 00:51:55;;;;;;;0.00;0.00;;;;;;;1.61;100.00;102617.84;10409904;28;20032;-76
2022/12/03 00:56:55;;;;;;;0.00;0.00;;;;;;;1.58;100.00;102616.19;10409624;28;20021;-76
2022/12/03 01:01:56;;;;;;;0.00;0.00;;;;;;;1.59;100.00;102619.66;10409587;28;20286;-77
2022/12/03 01:06:56;;;;;;;0.05;0.05;;;;;;;1.60;100.00;102629.28;10409754;28;20061;-77
2022/12/03 01:11:57;;;;;;;0.00;0.00;;;;;;;1.62;100.00;102623.94;10408690;28;20038;-76
2022/12/03 01:16:57;;;;;;;0.00;0.00;;;;;;;1.63;100.00;102623.91;10409349;28;20275;-77
2022/12/03 01:21:57;;;;;;;0.00;0.00;;;;;;;1.63;100.00;102626.53;10409578;28;20033;-76
2022/12/03 01:26:58;;;;;;;0.00;0.00;;;;;;;1.59;100.00;102617.03;10409073;28;20432;-76
2022/12/03 01:32:16;;;;;;;0.00;0.00;;;;;;;1.58;100.00;102617.97;10409184;28;20399;-77
2022/12/03 01:37:18;;;;;;;0.00;0.00;;;;;;;1.54;100.00;102609.34;10399465;28;20268;-76
2022/12/03 01:42:28;;;;;;;0.00;0.00;;;;;;;1.61;100.00;102628.34;10390926;28;20040;-76
2022/12/03 01:47:32;;;;;;;0.00;0.00;;;;;;;1.60;100.00;102613.53;10399622;28;20029;-77
2022/12/03 01:52:36;;;;;;;0.00;0.00;;;;;;;1.59;100.00;102622.28;10391139;28;20064;-76
2022/12/03 01:57:59;;;;;;;0.00;0.00;;;;;;;1.56;100.00;102625.88;10409423;28;20384;-77
2022/12/03 02:03:01;;;;;;;0.00;0.00;;;;;;;1.51;100.00;102632.22;10379323;28;20559;-76
2022/12/03 02:08:21;;;;;;;0.00;0.00;;;;;;;1.46;100.00;102626.31;10401751;28;20488;-77
2022/12/03 02:13:22;;;;;;;0.00;0.00;;;;;;;1.47;100.00;102628.84;10408789;28;20103;-76
2022/12/03 02:18:22;;;;;;;0.00;0.00;;;;;;;1.46;100.00;102626.31;10416250;28;20055;-76
2022/12/03 02:23:51;;;;;;;0.00;0.00;;;;;;;1.40;100.00;102626.50;10416062;28;20439;-76
2022/12/03 02:28:51;;;;;;;0.00;0.00;;;;;;;1.36;100.00;102621.34;10411692;28;20183;-76
2022/12/03 02:33:52;;;;;;;0.00;0.00;;;;;;;1.27;100.00;102613.81;10415573;28;20061;-76
2022/12/03 02:38:52;;;;;;;0.00;0.00;;;;;;;1.25;100.00;102644.53;10410647;28;20061;-76
2022/12/03 02:43:52;;;;;;;0.00;0.00;;;;;;;1.21;100.00;102629.78;10415384;28;20026;-76
2022/12/03 02:48:53;;;;;;;0.00;0.00;;;;;;;1.18;100.00;102632.53;10414553;28;20034;-76
2022/12/03 02:53:55;;;;;;;0.00;0.00;;;;;;;1.15;100.00;102637.88;10414836;28;20268;-76
2022/12/03 02:59:00;;;;;;;0.00;0.00;;;;;;;1.14;100.00;102617.81;10414920;28;20025;-76
2022/12/03 03:04:01;;;;;;;;;;;;;;;1.10;100.00;102630.16;10414381;28;20083;-76
2022/12/03 03:09:02;;;;;;;0.00;0.00;;;;;;;1.05;100.00;102620.78;10413360;28;19913;-76
2022/12/03 03:14:02;;;;;;;0.00;0.00;;;;;;;1.01;100.00;102625.25;10414022;28;20108;-76
2022/12/03 03:19:03;;;;;;;0.00;0.00;;;;;;;0.97;100.00;102626.28;10413839;28;20095;-76
2022/12/03 03:24:04;;;;;;;0.00;0.00;;;;;;;0.90;100.00;102625.63;10414542;28;20408;-76
2022/12/03 03:29:04;;;;;;;0.00;0.00;;;;;;;0.84;100.00;102638.97;10413656;28;20029;-76
2022/12/03 03:34:04;;;;;;;0.00;0.00;;;;;;;0.84;100.00;102646.84;10396241;28;20026;-76
2022/12/03 03:39:05;;;;;;;0.00;0.00;;;;;;;0.81;100.00;102623.31;10410404;28;20355;-76
2022/12/03 03:44:07;;;;;;;0.00;0.00;;;;;;;0.74;100.00;102621.81;10414832;28;20033;-76
2022/12/03 03:49:09;;;;;;;0.00;0.00;;;;;;;0.76;100.00;102608.66;10412938;28;20033;-76
2022/12/03 03:54:09;;;;;;;0.00;0.00;;;;;;;0.74;100.00;102613.94;10412710;28;20037;-76
2022/12/03 03:59:12;;;;;;;0.00;0.00;;;;;;;0.68;100.00;102617.63;10412482;28;20403;-76
2022/12/03 04:04:19;;;;;;;0.00;0.00;;;;;;;0.66;100.00;102603.69;10411890;28;20489;-76
2022/12/03 04:09:19;;;;;;;0.00;0.00;;;;;;;0.63;100.00;102603.81;10410814;28;20481;-76
2022/12/03 04:14:19;;;;;;;0.00;0.00;;;;;;;0.62;100.00;102593.38;10390636;28;20036;-76
2022/12/03 04:19:20;;;;;;;0.00;0.00;;;;;;;0.58;100.00;102599.63;10410693;28;20028;-76
2022/12/03 04:24:20;;;;;;;0.00;0.00;;;;;;;0.55;100.00;102594.47;10411802;28;20268;-76
2022/12/03 04:29:21;;;;;;;0.03;0.03;;;;;;;0.54;100.00;102600.63;10410719;28;20476;-76
2022/12/03 04:39:40;;;;;;;0.00;0.00;;;;;;;0.53;100.00;102614.66;10410535;28;20795;-75
2022/12/03 04:44:41;;;;;;;0.00;0.00;;;;;;;0.52;100.00;102620.81;10410441;28;20033;-76
2022/12/03 04:49:43;;;;;;;0.00;0.00;;;;;;;0.51;100.00;102613.84;10409844;28;20037;-76
2022/12/03 04:54:44;;;;;;;0.00;0.00;;;;;;;0.53;100.00;102622.53;10410127;28;20322;-76
2022/12/03 04:59:44;;;;;;;0.00;0.00;;;;;;;0.53;100.00;102617.28;10407837;28;20044;-76
2022/12/03 05:04:45;;;;;;;0.10;0.10;;;;;;;0.53;100.00;102612.03;10409485;28;20041;-76
2022/12/03 05:09:45;;;;;;;0.00;0.00;;;;;;;0.54;100.00;102619.00;10391292;28;20287;-76
2022/12/03 05:14:45;;;;;;;0.00;0.00;;;;;;;0.51;100.00;102619.94;10409856;28;20021;-76
2022/12/03 05:25:05;;;;;;;0.00;0.00;;;;;;;0.45;100.00;102607.88;10409625;28;20037;-76
2022/12/03 05:30:07;;;;;;;0.00;0.00;;;;;;;0.43;100.00;102607.06;10409376;28;20033;-76
2022/12/03 05:35:09;;;;;;;0.00;0.00;;;;;;;0.39;100.00;102605.47;10409176;28;20506;-76
2022/12/03 05:40:10;;;;;;;0.00;0.00;;;;;;;0.38;100.00;102601.16;10409279;28;20218;-76
2022/12/03 05:45:10;;;;;;;0.00;0.00;;;;;;;0.34;100.00;102601.28;10410816;28;20030;-76
2022/12/03 05:50:11;;;;;;;0.00;0.00;;;;;;;0.31;100.00;102591.75;10417145;28;20037;-76
2022/12/03 05:55:11;;;;;;;0.00;0.00;;;;;;;0.33;100.00;102589.09;10399316;28;20160;-76
2022/12/03 06:00:15;;;;;;;0.00;0.00;;;;;;;0.32;100.00;102587.38;10398635;28;20025;-76
2022/12/03 06:05:18;;;;;;;0.00;0.00;;;;;;;0.33;100.00;102586.47;10416545;28;20041;-76
2022/12/03 06:10:24;;;;;;;0.00;0.00;;;;;;;0.33;100.00;102589.09;10397745;28;20180;-76
2022/12/03 06:15:24;;;;;;;0.00;0.00;;;;;;;0.31;100.00;102577.78;10416414;28;20035;-76
2022/12/03 06:20:24;;;;;;;0.00;0.00;;;;;;;0.27;100.00;102582.28;10415916;28;20036;-76
2022/12/03 06:25:25;;;;;;;0.00;0.00;;;;;;;0.28;100.00;102575.28;10416211;28;20030;-76
2022/12/03 06:30:25;;;;;;;0.00;0.00;;;;;;;0.27;100.00;102574.44;10386897;28;20075;-76
2022/12/03 06:35:25;;;;;;;0.00;0.00;;;;;;;0.23;100.00;102562.31;10415302;28;20022;-76
2022/12/03 06:40:25;;;;;;;0.00;0.00;;;;;;;0.21;100.00;102564.16;10409704;28;20040;-76
2022/12/03 06:45:26;;;;;;;0.00;0.00;;;;;;;0.19;100.00;102569.41;10397627;28;20033;-76
2022/12/03 06:50:26;;;;;;;0.00;0.00;;;;;;;0.19;100.00;102571.19;10414818;28;20025;-76
2022/12/03 06:55:26;;;;;;;0.00;0.00;;;;;;;0.16;100.00;102576.53;10414597;28;20030;-76
2022/12/03 07:00:27;;;;;;;0.00;0.00;;;;;;;0.16;100.00;102571.28;10413795;28;20292;-76
2022/12/03 07:05:27;;;;;;;0.00;0.00;;;;;;;0.15;100.00;102577.44;10413712;28;20037;-76
2022/12/03 07:10:27;;;;;;;0.00;0.00;;;;;;;0.14;100.00;102566.09;10413891;28;20090;-76
2022/12/03 07:15:28;;;;;;;0.00;0.00;;;;;;;0.15;100.00;102557.34;10413919;28;20034;-76
2022/12/03 07:20:28;;;;;;;0.10;0.10;;;;;;;0.15;100.00;102569.59;10413751;28;20322;-76
2022/12/03 07:25:28;;;;;;;0.00;0.00;;;;;;;0.15;100.00;102566.97;10413665;28;20503;-76
2022/12/03 07:30:29;;;;;;;0.00;0.00;;;;;;;0.16;100.00;102568.66;10412748;28;20484;-76
2022/12/03 07:35:29;;;;;;;0.00;0.00;;;;;;;0.16;100.00;102576.53;10413046;28;20079;-76
2022/12/03 07:40:29;;;;;;;0.00;0.00;;;;;;;0.16;100.00;102579.16;10412676;28;20076;-76
2022/12/03 07:45:29;;;;;;;0.00;0.00;;;;;;;0.18;100.00;102579.97;10412447;28;20679;-76
2022/12/03 07:50:30;;;;;;;0.00;0.00;;;;;;;0.17;100.00;102573.00;10412201;28;20037;-76
2022/12/03 07:55:30;;;;;;;0.00;0.00;;;;;;;0.16;100.00;102582.63;10394298;28;20033;-76
2022/12/03 08:00:30;;;;;;;0.00;0.00;;;;;;;0.19;100.00;102573.81;10384244;28;20041;-76
2022/12/03 08:05:31;;;;;;;0.00;0.00;;;;;;;0.17;100.00;102573.84;10410565;28;20288;-76
2022/12/03 08:10:31;;;;;;;0.00;0.00;;;;;;;0.15;100.00;102569.59;10410691;28;20045;-76
2022/12/03 08:15:31;;;;;;;0.03;0.03;;;;;;;0.18;100.00;102572.09;10409420;28;20034;-76
2022/12/03 08:20:36;;;;;;;0.00;0.00;;;;;;;0.15;100.00;102570.44;10411195;28;20469;-76
2022/12/03 08:25:36;;;;;;;0.00;0.00;;;;;;;0.13;100.00;102564.38;10411235;28;20476;-76
2022/12/03 08:30:38;;;;;;;0.00;0.00;;;;;;;0.13;100.00;102571.38;10410802;28;20053;-76
2022/12/03 08:35:43;;;;;;;0.00;0.00;;;;;;;0.11;100.00;102567.94;10411079;28;20040;-76
2022/12/03 08:40:45;;;;;;;;;;;;;;;0.13;100.00;102551.28;10410499;28;20095;-76
2022/12/03 08:45:45;;;;;;;0.00;0.00;;;;;;;0.13;100.00;102545.19;10411371;28;19913;-77
2022/12/03 08:50:46;;;;;;;0.00;0.00;;;;;;;0.16;100.00;102547.72;10411264;28;20447;-77
2022/12/03 08:55:51;;;;;;;0.00;0.00;;;;;;;0.19;100.00;102544.97;10410907;28;20033;-76
2022/12/03 09:01:10;;;;;;;0.00;0.00;;;;;;;0.21;100.00;102548.41;10410695;28;20025;-76
2022/12/03 09:06:10;;;;;;;0.00;0.00;;;;;;;0.21;100.00;102545.78;10406234;28;20068;-76
2022/12/03 09:11:10;;;;;;;0.00;0.00;;;;;;;0.25;100.00;102547.41;10410528;28;20033;-77
2022/12/03 09:16:11;;;;;;;0.00;0.00;;;;;;;0.26;100.00;102540.38;10405365;28;20025;-78
2022/12/03 09:21:11;;;;;;;0.00;0.00;;;;;;;0.29;100.00;102541.16;10387421;28;20036;-78
2022/12/03 09:26:11;;;;;;;0.00;0.00;;;;;;;0.32;100.00;102534.94;10404805;28;20789;-78
2022/12/03 09:31:12;;;;;;;0.00;0.00;;;;;;;0.31;100.00;102528.00;10408107;28;20034;-78
2022/12/03 09:36:12;;;;;;;0.00;0.00;;;;;;;0.36;100.00;102529.56;10409786;28;20388;-78
2022/12/03 09:41:12;;;;;;;0.00;0.00;;;;;;;0.38;100.00;102527.75;10390095;28;20396;-78
2022/12/03 09:46:13;;;;;;;0.00;0.00;;;;;;;0.48;100.00;102530.06;10408674;28;20450;-77
2022/12/03 09:51:13;;;;;;;0.00;0.00;;;;;;;0.50;100.00;102521.22;10407832;28;20116;-78
2022/12/03 09:56:22;;;;;;;0.00;0.00;;;;;;;0.56;100.00;102512.28;10408648;28;20034;-78
2022/12/03 10:01:22;;;;;;;0.00;0.00;;;;;;;0.62;100.00;102512.06;10405300;28;20029;-78
2022/12/03 10:06:23;;;;;;;0.00;0.00;;;;;;;0.62;100.00;102504.22;10406248;28;20026;-77
2022/12/03 10:11:24;;;;;;;0.10;0.10;;;;;;;0.59;100.00;102501.69;10405258;28;20037;-77
2022/12/03 10:16:26;;;;;;;0.00;0.00;;;;;;;0.58;100.00;102500.84;10407462;28;20140;-77
2022/12/03 10:21:31;;;;;;;0.00;0.00;;;;;;;0.57;100.00;102500.88;10388772;28;20413;-77
2022/12/03 10:26:40;;;;;;;0.00;0.00;;;;;;;0.55;100.00;102487.81;10406400;28;20087;-77
2022/12/03 10:31:40;;;;;;;0.10;0.10;;;;;;;0.57;100.00;102498.25;10407612;28;20029;-78
2022/12/03 10:36:40;;;;;;;0.00;0.00;;;;;;;0.60;100.00;102493.75;10412849;28;20030;-77
2022/12/03 10:41:43;;;;;;;0.00;0.00;;;;;;;0.64;100.00;102484.00;10415056;28;20060;-80
2022/12/03 10:46:45;;;;;;;0.10;0.10;;;;;;;0.66;100.00;102482.19;10395863;28;20029;-77
2022/12/03 10:51:47;;;;;;;0.00;0.00;;;;;;;0.66;100.00;102487.44;10394898;28;20037;-77
2022/12/03 10:56:49;;;;;;;0.00;0.00;;;;;;;0.68;100.00;102475.16;10414284;28;20024;-78
2022/12/03 11:01:50;;;;;;;0.00;0.00;;;;;;;0.73;100.00;102470.59;10415694;28;20466;-77
2022/12/03 11:06:51;;;;;;;0.00;0.00;;;;;;;0.73;100.00;102470.59;10414415;28;20057;-78
2022/12/03 11:11:52;;;;;;;0.00;0.00;;;;;;;0.74;100.00;102472.28;10415911;28;20061;-78
2022/12/03 11:16:52;;;;;;;0.00;0.00;;;;;;;0.78;100.00;102463.38;10415059;28;20291;-78
2022/12/03 11:22:04;;;;;;;0.08;0.08;;;;;;;0.79;100.00;102454.63;10414195;28;20085;-77
2022/12/03 11:27:09;;;;;;;0.00;0.00;;;;;;;0.85;100.00;102448.31;10397214;28;20057;-78
2022/12/03 11:32:09;;;;;;;0.00;0.00;;;;;;;0.88;100.00;102438.53;10396316;28;20034;-78
2022/12/03 11:37:10;;;;;;;0.00;0.00;;;;;;;0.94;100.00;102441.88;10412390;28;20150;-77
2022/12/03 11:42:25;;;;;;;0.00;0.00;;;;;;;1.00;100.00;102436.38;10396269;28;20034;-78
2022/12/03 11:47:25;;;;;;;0.00;0.00;;;;;;;1.00;100.00;102425.88;10413867;28;20405;-78
2022/12/03 11:52:29;;;;;;;0.00;0.00;;;;;;;1.01;100.00;102415.31;10394880;28;20048;-78
2022/12/03 11:57:36;;;;;;;0.00;0.00;;;;;;;1.03;100.00;102418.75;10412769;28;20558;-78
2022/12/03 12:02:36;;;;;;;0.00;0.00;;;;;;;1.04;100.00;102416.97;10413766;28;20492;-77
2022/12/03 12:07:37;;;;;;;0.00;0.00;;;;;;;1.04;100.00;102411.72;10411142;28;20040;-78
2022/12/03 12:12:43;;;;;;;0.00;0.00;;;;;;;1.08;100.00;102408.09;10411905;28;20037;-78
2022/12/03 12:17:43;;;;;;;0.00;0.00;;;;;;;1.03;100.00;102407.41;10412396;28;20123;-78
2022/12/03 12:22:43;;;;;;;0.00;0.00;;;;;;;1.04;100.00;102394.19;10412522;28;20059;-78
2022/12/03 12:27:44;;;;;;;0.00;0.00;;;;;;;1.01;100.00;102378.56;10411689;28;20041;-78
2022/12/03 12:33:10;;;;;;;0.00;0.00;;;;;;;1.03;100.00;102373.28;10394268;28;20033;-78
2022/12/03 12:38:17;;;;;;;0.00;0.00;;;;;;;1.02;100.00;102361.94;10409087;28;20034;-78
2022/12/03 12:43:26;;;;;;;0.00;0.00;;;;;;;1.04;100.00;102356.63;10394059;28;20033;-79
2022/12/03 12:48:30;;;;;;;0.00;0.00;;;;;;;1.03;100.00;102357.53;10412014;28;20088;-80
2022/12/03 12:53:33;;;;;;;0.00;0.00;;;;;;;1.00;100.00;102353.25;10410487;28;20060;-78
2022/12/03 12:58:34;;;;;;;0.00;0.00;;;;;;;0.95;100.00;102355.19;10410613;28;20029;-78
2022/12/03 13:03:38;;;;;;;0.00;0.00;;;;;;;0.92;100.00;102349.22;10410930;28;20045;-78
2022/12/03 13:08:43;;;;;;;0.00;0.00;;;;;;;0.88;100.00;102341.47;10409487;28;20043;-78
2022/12/03 13:13:43;;;;;;;;;;;;;;;0.90;100.00;102339.66;10411798;28;20044;-78
2022/12/03 13:18:57;;;;;;;0.00;0.00;;;;;;;0.94;100.00;102340.38;10410073;28;19909;-78
2022/12/03 13:23:57;;;;;;;0.00;0.00;;;;;;;0.96;100.00;102338.56;10411493;28;20040;-77
2022/12/03 13:29:01;;;;;;;0.00;0.00;;;;;;;0.95;100.00;102330.75;10409909;28;20160;-78
2022/12/03 13:34:13;;;;;;;0.00;0.00;;;;;;;0.95;100.00;102339.47;10400308;28;20098;-78
2022/12/03 13:39:27;;;;;;;0.10;0.10;;;;;;;0.91;100.00;102335.25;10385765;28;20388;-78
2022/12/03 13:44:30;;;;;;;0.00;0.00;;;;;;;0.88;100.00;102332.75;10411351;28;20160;-78
2022/12/03 13:49:31;;;;;;;0.00;0.00;;;;;;;0.88;100.00;102330.13;10409464;28;20140;-78
2022/12/03 13:54:38;;;;;;;0.10;0.10;;;;;;;0.87;100.00;102328.41;10392376;28;20041;-77
2022/12/03 13:59:39;;;;;;;0.00;0.00;;;;;;;0.85;100.00;102327.63;10391680;28;20033;-78
2022/12/03 14:04:39;;;;;;;0.00;0.00;;;;;;;0.83;100.00;102317.19;10391893;28;20459;-77
2022/12/03 14:09:40;;;;;;;0.00;0.00;;;;;;;0.79;100.00;102325.25;10410764;28;20037;-77
2022/12/03 14:14:40;;;;;;;0.00;0.00;;;;;;;0.70;100.00;102320.34;10415385;28;20092;-77
2022/12/03 14:19:40;;;;;;;0.00;0.00;;;;;;;0.66;100.00;102322.22;10414677;28;20029;-77
2022/12/03 14:24:40;;;;;;;0.00;0.00;;;;;;;0.60;100.00;102301.47;10396305;28;20128;-78
2022/12/03 14:29:41;;;;;;;0.00;0.00;;;;;;;0.55;100.00;102309.50;10413932;28;20038;-77
2022/12/03 14:34:41;;;;;;;0.00;0.00;;;;;;;0.49;100.00;102308.91;10416045;28;20117;-77
2022/12/03 14:39:41;;;;;;;0.00;0.00;;;;;;;0.46;100.00;102304.63;10414794;28;20040;-78
2022/12/03 14:44:47;;;;;;;0.00;0.00;;;;;;;0.43;100.00;102302.13;10398404;28;20033;-78
2022/12/03 14:49:49;;;;;;;0.00;0.00;;;;;;;0.38;100.00;102296.22;10416250;28;20505;-78
2022/12/03 14:54:49;;;;;;;0.10;0.10;;;;;;;0.38;100.00;102299.69;10415605;28;20040;-77
2022/12/03 14:59:50;;;;;;;0.00;0.00;;;;;;;0.33;100.00;102293.75;10415777;28;20104;-77
2022/12/03 15:04:50;;;;;;;0.00;0.00;;;;;;;0.28;100.00;102297.47;10415625;28;20029;-77
2022/12/03 15:09:50;;;;;;;0.00;0.00;;;;;;;0.24;100.00;102295.88;10413790;28;20029;-78
2022/12/03 15:14:51;;;;;;;0.00;0.00;;;;;;;0.20;100.00;102300.34;10398004;28;20033;-77
2022/12/03 15:19:51;;;;;;;0.00;0.00;;;;;;;0.17;100.00;102303.06;10414331;28;20083;-78
2022/12/03 15:24:51;;;;;;;0.00;0.00;;;;;;;0.18;100.00;102302.19;10414816;28;20554;-77
2022/12/03 15:29:52;;;;;;;0.10;0.10;;;;;;;0.20;100.00;102302.97;10413732;28;20488;-78
2022/12/03 15:34:52;;;;;;;0.00;0.00;;;;;;;0.17;100.00;102301.31;10414969;28;20497;-78
2022/12/03 15:39:52;;;;;;;0.00;0.00;;;;;;;0.12;100.00;102297.19;10411533;28;20260;-77
2022/12/03 15:44:53;;;;;;;0.00;0.00;;;;;;;0.02;100.00;102290.53;10415535;28;20542;-78
2022/12/03 15:49:53;;;;;;;0.00;0.00;;;;;;;-0.13;100.00;102292.81;10397313;28;20400;-78
2022/12/03 15:54:54;;;;;;;0.00;0.00;;;;;;;-0.17;100.00;102293.84;10414125;28;20256;-78
2022/12/03 15:59:54;;;;;;;0.03;0.03;;;;;;;-0.18;100.00;102296.50;10421792;22;20094;-77
2022/12/03 16:04:54;;;;;;;0.00;0.00;;;;;;;-0.21;100.00;102291.34;10419445;28;20083;-77
2022/12/03 16:09:55;;;;;;;0.00;0.00;;;;;;;-0.17;100.00;102287.75;10436001;28;20486;-75
2022/12/03 16:14:55;;;;;;;0.00;0.00;;;;;;;-0.16;100.00;102287.66;10430911;28;20025;-75
2022/12/03 16:19:56;;;;;;;0.00;0.00;;;;;;;-0.18;100.00;102284.25;10420567;28;20034;-76
2022/12/03 16:24:56;;;;;;;0.00;0.00;;;;;;;-0.16;100.00;102282.44;10410210;28;20033;-75
2022/12/03 16:29:56;;;;;;;0.00;0.00;;;;;;;-0.16;100.00;102282.44;10402104;28;20030;-74
2022/12/03 16:34:57;;;;;;;0.00;0.00;;;;;;;-0.18;100.00;102289.47;10441757;28;20259;-74
2022/12/03 16:39:57;;;;;;;0.10;0.10;;;;;;;-0.27;100.00;102285.41;10412809;28;20252;-75
2022/12/03 16:50:07;;;;;;;0.00;0.00;;;;;;;-0.61;100.00;102279.63;10446719;28;20259;-75
2022/12/03 16:55:08;;;;;;;0.00;0.00;;;;;;;-0.72;100.00;102280.84;10411715;28;20033;-75
2022/12/03 17:00:09;;;;;;;0.00;0.00;;;;;;;-0.69;100.00;102277.28;10411374;28;20328;-75
2022/12/03 17:05:09;;;;;;;0.00;0.00;;;;;;;-0.60;100.00;102276.13;10430152;28;20037;-75
2022/12/03 17:10:10;;;;;;;0.00;0.00;;;;;;;-0.55;100.00;102268.97;10407424;28;20060;-75
2022/12/03 17:15:10;;;;;;;0.10;0.10;;;;;;;-0.46;100.00;102279.13;10407789;28;20036;-75
2022/12/03 17:20:13;;;;;;;0.00;0.00;;;;;;;-0.40;100.00;102271.06;10407382;28;20393;-75
2022/12/03 17:25:14;;;;;;;0.10;0.10;;;;;;;-0.31;100.00;102272.50;10413347;28;20757;-75
2022/12/03 17:30:14;;;;;;;0.00;0.00;;;;;;;-0.26;100.00;102260.13;10411155;28;20056;-75
2022/12/03 17:35:15;;;;;;;0.00;0.00;;;;;;;-0.25;100.00;102256.56;10409588;28;20480;-74
2022/12/03 17:40:16;;;;;;;0.00;0.00;;;;;;;-0.26;100.00;102260.13;10409808;28;20036;-74
2022/12/03 17:45:16;;;;;;;0.00;0.00;;;;;;;-0.24;100.00;102247.81;10415700;28;20467;-75
2022/12/03 17:50:16;;;;;;;0.00;0.00;;;;;;;-0.26;100.00;102252.25;10432686;28;20064;-75
2022/12/03 17:55:17;;;;;;;0.00;0.00;;;;;;;-0.34;100.00;102235.97;10431690;28;20172;-75
2022/12/03 18:00:17;;;;;;;0.10;0.10;;;;;;;-0.37;100.00;102239.53;10431798;28;20025;-75
2022/12/03 18:05:18;;;;;;;0.00;0.00;;;;;;;-0.44;100.00;102240.66;10425055;28;20034;-75
2022/12/03 18:10:18;;;;;;;0.00;0.00;;;;;;;-0.49;100.00;102242.59;10423809;28;20032;-75
2022/12/03 18:15:18;;;;;;;0.00;0.00;;;;;;;-0.51;100.00;102241.78;10436308;28;20274;-75
2022/12/03 18:20:19;;;;;;;0.10;0.10;;;;;;;-0.51;100.00;102240.00;10438107;28;20402;-75
2022/12/03 18:25:19;;;;;;;0.00;0.00;;;;;;;-0.52;100.00;102245.31;10436170;28;20041;-75
2022/12/03 18:30:19;;;;;;;0.10;0.10;;;;;;;-0.51;100.00;102245.25;10427921;28;20273;-75
2022/12/03 18:35:20;;;;;;;0.00;0.00;;;;;;;-0.47;100.00;102248.59;10418169;28;20095;-75
2022/12/03 18:40:23;;;;;;;0.00;0.00;;;;;;;-0.44;100.00;102248.50;10431818;28;20036;-75
2022/12/03 18:45:23;;;;;;;0.10;0.10;;;;;;;-0.37;100.00;102243.94;10397789;28;20030;-74
2022/12/03 18:50:23;;;;;;;0.00;0.00;;;;;;;-0.31;100.00;102259.41;10435708;28;20032;-75
2022/12/03 18:55:26;;;;;;;0.00;0.00;;;;;;;-0.27;100.00;102242.69;10449133;28;20251;-75
2022/12/03 19:00:26;;;;;;;0.00;0.00;;;;;;;-0.22;100.00;102246.00;10419673;28;20291;-74
2022/12/03 19:05:27;;;;;;;0.00;0.00;;;;;;;-0.18;100.00;102242.34;10441286;28;20068;-75
2022/12/03 19:10:27;;;;;;;0.00;0.00;;;;;;;-0.11;100.00;102237.75;10428056;28;20033;-75
2022/12/03 19:15:27;;;;;;;0.00;0.00;;;;;;;-0.07;100.00;102237.56;10427351;28;20033;-75
2022/12/03 19:20:28;;;;;;;0.00;0.00;;;;;;;-0.02;100.00;102243.50;10435278;28;20052;-75
2022/12/03 19:25:28;;;;;;;0.03;0.03;;;;;;;-0.02;100.00;102243.50;10432820;28;20037;-75
2022/12/03 19:30:28;;;;;;;0.00;0.00;;;;;;;-0.01;100.00;102239.97;10420264;28;20034;-75
2022/12/03 19:35:30;;;;;;;0.00;0.00;;;;;;;0.01;100.00;102246.94;10429697;28;20030;-75
2022/12/03 19:40:30;;;;;;;0.00;0.00;;;;;;;0.01;100.00;102239.06;10394234;28;20095;-75
2022/12/03 19:45:31;;;;;;;0.00;0.00;;;;;;;0.02;100.00;102243.38;10422282;28;20171;-75
2022/12/03 19:50:31;;;;;;;0.00;0.00;;;;;;;0.02;100.00;102244.25;10434402;28;20025;-75
2022/12/03 19:55:33;;;;;;;0.00;0.00;;;;;;;0.01;100.00;102241.69;10448103;28;20029;-75
2022/12/03 20:00:34;;;;;;;0.00;0.00;;;;;;;0.00;100.00;102240.84;10433112;28;20408;-75
2022/12/03 20:05:37;;;;;;;0.08;0.08;;;;;;;-0.01;100.00;102242.59;10430940;28;20561;-75
2022/12/03 20:10:37;;;;;;;0.00;0.00;;;;;;;-0.05;100.00;102248.00;10450659;28;20037;-75
2022/12/03 20:15:37;;;;;;;0.00;0.00;;;;;;;-0.09;100.00;102249.00;10417954;28;20509;-75
2022/12/03 20:20:39;;;;;;;0.10;0.10;;;;;;;-0.12;100.00;102242.13;10409791;28;20284;-75
2022/12/03 20:25:39;;;;;;;0.00;0.00;;;;;;;-0.13;100.00;102255.28;10409743;28;20034;-75
2022/12/03 20:30:39;;;;;;;0.00;0.00;;;;;;;-0.15;100.00;102244.00;10428903;28;20036;-75
2022/12/03 20:35:40;;;;;;;0.00;0.00;;;;;;;-0.17;100.00;102238.84;10423680;28;20037;-75
2022/12/03 20:40:40;;;;;;;0.00;0.00;;;;;;;-0.20;100.00;102252.03;10414569;28;20052;-75
2022/12/03 20:45:40;;;;;;;0.00;0.00;;;;;;;-0.27;100.00;102235.66;10416892;28;20034;-75
2022/12/03 20:50:41;;;;;;;0.00;0.00;;;;;;;-0.30;100.00;102248.88;10412097;28;20046;-75
2022/12/03 20:55:41;;;;;;;0.00;0.00;;;;;;;-0.33;100.00;102254.22;10419726;28;20025;-75
2022/12/03 21:00:41;;;;;;;0.00;0.00;;;;;;;-0.38;100.00;102242.19;10404619;28;20037;-75
2022/12/03 21:05:42;;;;;;;0.00;0.00;;;;;;;-0.41;100.00;102247.53;10427988;28;20087;-75
2022/12/03 21:10:46;;;;;;;0.10;0.10;;;;;;;-0.43;100.00;102242.38;10396818;28;20048;-75
2022/12/03 21:15:46;;;;;;;0.10;0.10;;;;;;;-0.47;100.00;102259.06;10414104;28;20033;-75
2022/12/03 21:20:47;;;;;;;0.00;0.00;;;;;;;-0.56;100.00;102247.16;10436430;28;20029;-75
2022/12/03 21:25:47;;;;;;;0.00;0.00;;;;;;;-0.60;100.00;102248.19;10424747;28;20034;-75
2022/12/03 21:30:47;;;;;;;0.00;0.00;;;;;;;-0.65;100.00;102255.34;10419974;28;20689;-75
2022/12/03 21:35:48;;;;;;;0.00;0.00;;;;;;;-0.70;100.00;102252.00;10411264;28;20400;-74
2022/12/03 21:40:48;;;;;;;0.00;0.00;;;;;;;-0.75;100.00;102246.94;10429704;28;20029;-74
2022/12/03 21:45:49;;;;;;;0.10;0.10;;;;;;;-0.76;100.00;102250.44;10435822;28;20037;-75
2022/12/03 21:51:02;;;;;;;0.10;0.10;;;;;;;-0.79;100.00;102261.03;10421967;28;20354;-75
2022/12/03 21:56:08;;;;;;;0.00;0.00;;;;;;;-0.83;100.00;102261.19;10437265;28;20028;-75
2022/12/03 22:01:16;;;;;;;0.00;0.00;;;;;;;-0.93;100.00;102261.50;10387742;22;21202;-76
2022/12/03 22:06:17;;;;;;;0.00;0.00;;;;;;;-0.97;100.00;102256.41;10316071;28;20045;-75
2022/12/03 22:11:22;;;;;;;0.00;0.00;;;;;;;-1.01;100.00;102255.66;10326250;28;20057;-76
2022/12/03 22:16:22;;;;;;;0.10;0.10;;;;;;;-1.04;100.00;102254.91;10309479;28;20026;-76
2022/12/03 22:21:24;;;;;;;0.00;0.00;;;;;;;-1.08;100.00;102267.19;10332882;28;20396;-76
2022/12/03 22:26:24;;;;;;;0.00;0.00;;;;;;;-1.15;100.00;102268.31;10356249;28;20049;-76
2022/12/03 22:31:24;;;;;;;0.00;0.00;;;;;;;-1.15;100.00;102268.31;10340755;28;20034;-76
2022/12/03 22:36:25;;;;;;;0.00;0.00;;;;;;;-1.19;100.00;102262.34;10363505;28;20082;-76
2022/12/03 22:41:25;;;;;;;0.00;0.00;;;;;;;-1.23;100.00;102260.69;10354459;28;20269;-75
2022/12/03 22:46:25;;;;;;;0.08;0.08;;;;;;;-1.28;100.00;102248.66;10339056;28;20280;-76
2022/12/03 22:51:26;;;;;;;0.00;0.00;;;;;;;-1.35;100.00;102240.19;10343908;28;20027;-76
2022/12/03 22:56:27;;;;;;;0.00;0.00;;;;;;;-1.46;100.00;102252.72;10347044;28;20092;-76
2022/12/03 23:01:30;;;;;;;0.05;0.05;;;;;;;-1.52;100.00;102252.91;10350243;28;20459;-76
2022/12/03 23:06:33;;;;;;;0.00;0.00;;;;;;;-1.56;100.00;102246.06;10372356;28;20045;-76
2022/12/03 23:11:34;;;;;;;0.00;0.00;;;;;;;-1.56;100.00;102241.69;10371314;28;20038;-76
2022/12/03 23:16:34;;;;;;;0.00;0.00;;;;;;;-1.54;100.00;102247.75;10371269;28;20033;-76